Time;durP1;ratioP1;P1;durP2;ratioP2;P2;SDS_P1;SDS_P2;PMS_P1;PMS_P2;Temp;Humidity;BMP_temperature;BMP_pressure;BME280_temperature;BME280_humidity;BME280_pressure;Samples;Min_cycle;Max_cycle;Signal;HPM_P1;HPM_P2
2023/06/19 00:07:06;;;;;;;10.63;9.63;;;22.40;71.30;;;;;;6195904;23;20028;-80
2023/06/19 01:26:35;;;;;;;10.85;9.88;;;21.70;88.00;;;;;;6214339;22;20337;-75
2023/06/19 01:29:01;;;;;;;10.43;9.52;;;21.60;90.50;;;;;;6188038;23;20016;-76
2023/06/19 01:31:33;;;;;;;10.50;9.60;;;21.60;92.50;;;;;;6187940;23;20075;-75
2023/06/19 01:34:01;;;;;;;10.60;9.63;;;21.60;94.10;;;;;;6212139;23;20460;-75
2023/06/19 01:36:27;;;;;;;10.52;9.60;;;21.50;95.60;;;;;;6187648;23;20017;-75
2023/06/19 01:49:15;;;;;;;10.90;10.00;;;21.40;99.60;;;;;;6199076;22;20472;-75
2023/06/19 01:51:40;;;;;;;10.77;9.82;;;21.40;98.40;;;;;;6212843;23;20066;-75
2023/06/19 01:54:07;;;;;;;10.30;9.50;;;21.40;97.70;;;;;;6212940;23;20040;-75
2023/06/19 01:56:32;;;;;;;10.20;9.30;;;21.40;99.90;;;;;;6212149;23;20023;-75
2023/06/19 01:58:58;;;;;;;10.90;9.90;;;21.30;99.90;;;;;;6212757;23;20012;-75
2023/06/19 02:01:24;;;;;;;10.50;9.60;;;21.30;99.90;;;;;;6187838;23;20009;-75
2023/06/19 02:03:49;;;;;;;10.57;9.68;;;21.30;99.90;;;;;;6237093;23;20012;-75
2023/06/19 02:06:15;;;;;;;11.15;10.18;;;21.20;99.90;;;;;;6237835;23;20005;-75
2023/06/19 02:08:40;;;;;;;10.52;9.63;;;21.20;99.90;;;;;;6236747;23;20031;-75
2023/06/19 02:11:06;;;;;;;10.55;9.75;;;21.20;99.90;;;;;;6237600;23;20087;-75
2023/06/19 02:13:31;;;;;;;10.35;9.45;;;21.10;99.90;;;;;;6187329;23;20023;-75
2023/06/19 02:15:57;;;;;;;10.48;9.63;;;21.20;99.90;;;;;;6187463;23;20009;-75
2023/06/19 02:18:22;;;;;;;10.57;9.63;;;21.20;99.90;;;;;;6212612;23;20457;-75
2023/06/19 02:20:48;;;;;;;11.18;10.15;;;21.10;99.90;;;;;;6187733;23;20023;-75
2023/06/19 02:23:14;;;;;;;10.43;9.57;;;21.10;99.90;;;;;;6236536;23;20023;-75
2023/06/19 02:25:39;;;;;;;10.05;9.25;;;21.10;99.90;;;;;;6236879;23;20374;-75
2023/06/19 02:28:05;;;;;;;11.15;10.15;;;21.10;99.90;;;;;;6212340;23;20019;-75
2023/06/19 02:30:30;;;;;;;10.68;9.68;;;21.10;99.90;;;;;;6187485;23;20456;-75
2023/06/19 02:32:56;;;;;;;10.27;9.38;;;21.00;99.90;;;;;;6211577;23;20019;-75
2023/06/19 02:35:21;;;;;;;10.63;9.63;;;21.10;99.90;;;;;;6237169;23;20011;-75
2023/06/19 02:37:47;;;;;;;10.45;9.40;;;21.10;99.90;;;;;;6212180;23;20445;-75
2023/06/19 02:40:14;;;;;;;10.50;9.60;;;21.00;99.90;;;;;;6237740;22;20008;-75
2023/06/19 02:42:39;;;;;;;9.70;8.90;;;21.10;99.90;;;;;;6236155;23;20017;-75
2023/06/19 02:45:05;;;;;;;10.98;9.27;;;21.10;99.90;;;;;;6212233;23;20013;-75
2023/06/19 02:47:31;;;;;;;9.27;8.48;;;21.10;99.90;;;;;;6237018;23;20087;-75
2023/06/19 02:50:02;;;;;;;10.15;9.13;;;21.10;99.90;;;;;;6237425;22;20055;-75
2023/06/19 02:52:28;;;;;;;10.65;9.70;;;21.10;99.90;;;;;;6237865;23;20395;-75
2023/06/19 02:54:54;;;;;;;10.10;9.30;;;21.10;99.90;;;;;;6237637;23;20392;-75
2023/06/19 02:57:19;;;;;;;9.55;8.63;;;21.10;99.90;;;;;;6186824;23;20012;-75
2023/06/19 02:59:46;;;;;;;10.20;8.13;;;21.10;99.90;;;;;;6237225;22;20039;-75
2023/06/19 03:02:11;;;;;;;9.27;8.38;;;21.10;99.90;;;;;;6236977;23;20019;-75
2023/06/19 03:04:37;;;;;;;8.60;7.70;;;21.00;99.90;;;;;;6211973;23;20016;-75
2023/06/19 03:07:03;;;;;;;7.90;6.82;;;21.10;99.90;;;;;;6237272;23;20004;-75
2023/06/19 03:09:28;;;;;;;7.20;6.60;;;21.10;99.90;;;;;;6187220;23;20008;-75
2023/06/19 03:11:54;;;;;;;6.25;5.75;;;21.10;99.90;;;;;;6237645;23;20016;-75
2023/06/19 03:14:20;;;;;;;6.72;6.03;;;21.10;99.90;;;;;;6236530;23;20016;-75
2023/06/19 03:16:46;;;;;;;6.40;5.80;;;21.10;99.90;;;;;;6186856;23;20349;-75
2023/06/19 03:19:12;;;;;;;5.90;5.35;;;21.10;99.90;;;;;;6237919;22;20044;-75
2023/06/19 03:21:38;;;;;;;6.15;5.30;;;21.00;99.90;;;;;;6239587;23;20392;-75
2023/06/19 03:24:04;;;;;;;5.07;4.55;;;20.90;99.90;;;;;;6239161;23;20479;-75
2023/06/19 03:26:29;;;;;;;5.47;4.63;;;20.90;99.90;;;;;;6239390;23;20100;-75
2023/06/19 03:28:55;;;;;;;5.07;4.57;;;20.80;99.90;;;;;;6239260;22;20005;-75
2023/06/19 03:31:20;;;;;;;5.13;4.63;;;20.70;99.90;;;;;;6239510;23;20072;-75
2023/06/19 03:33:46;;;;;;;5.80;4.75;;;20.70;99.90;;;;;;6239499;23;20013;-75
2023/06/19 03:36:12;;;;;;;5.43;4.90;;;20.60;99.90;;;;;;6239296;23;20009;-75
2023/06/19 03:38:37;;;;;;;5.90;5.38;;;20.50;99.90;;;;;;6239219;23;20301;-75
2023/06/19 03:41:03;;;;;;;5.35;4.85;;;20.50;99.90;;;;;;6239196;23;20344;-75
2023/06/19 03:43:28;;;;;;;5.57;4.90;;;20.40;99.90;;;;;;6238530;23;20008;-75
2023/06/19 03:45:54;;;;;;;5.20;4.70;;;20.40;99.90;;;;;;6213830;23;20009;-75
2023/06/19 03:48:19;;;;;;;5.35;4.82;;;20.30;99.90;;;;;;6239352;23;20053;-75
2023/06/19 03:50:45;;;;;;;6.82;4.88;;;20.30;99.90;;;;;;6239276;23;20015;-75
2023/06/19 03:53:11;;;;;;;6.47;4.60;;;20.20;99.90;;;;;;6238838;23;20039;-75
2023/06/19 03:55:36;;;;;;;6.00;4.55;;;20.10;99.90;;;;;;6239278;23;20070;-75
2023/06/19 03:58:02;;;;;;;5.55;5.00;;;20.10;99.90;;;;;;6239089;23;20013;-75
2023/06/19 04:00:28;;;;;;;5.50;4.90;;;20.10;99.90;;;;;;6188949;23;20015;-75
2023/06/19 04:02:53;;;;;;;4.97;4.50;;;20.00;99.90;;;;;;6238837;23;20008;-75
2023/06/19 04:05:21;;;;;;;4.93;4.43;;;20.00;99.90;;;;;;6238673;23;20015;-75
2023/06/19 04:07:47;;;;;;;4.80;4.30;;;19.90;99.90;;;;;;6238934;23;20004;-75
2023/06/19 04:10:13;;;;;;;5.30;4.80;;;19.80;99.90;;;;;;6239275;22;20004;-75
2023/06/19 04:12:40;;;;;;;5.78;4.78;;;19.80;99.90;;;;;;6212815;23;20107;-75
2023/06/19 04:15:06;;;;;;;5.10;4.60;;;19.80;99.90;;;;;;6238981;23;20070;-75
2023/06/19 04:17:32;;;;;;;5.03;4.63;;;19.80;99.90;;;;;;6238627;23;20016;-75
2023/06/19 04:19:58;;;;;;;5.00;4.60;;;19.70;99.90;;;;;;6238956;22;20117;-75
2023/06/19 04:22:23;;;;;;;5.82;5.05;;;19.70;99.90;;;;;;6213333;23;20087;-75
2023/06/19 04:24:49;;;;;;;5.40;4.60;;;19.70;99.90;;;;;;6238851;23;20378;-75
2023/06/19 04:27:14;;;;;;;5.68;5.10;;;19.70;99.90;;;;;;6238846;23;20016;-75
2023/06/19 04:29:40;;;;;;;5.65;5.15;;;19.90;99.90;;;;;;6238801;22;20009;-75
2023/06/19 04:32:11;;;;;;;6.13;5.55;;;20.10;99.90;;;;;;6238554;23;20146;-75
2023/06/19 04:34:38;;;;;;;5.43;4.93;;;20.40;99.90;;;;;;6187272;23;20456;-75
2023/06/19 04:37:04;;;;;;;5.68;5.18;;;20.60;99.90;;;;;;6238717;23;20020;-75
2023/06/19 04:39:29;;;;;;;5.72;5.05;;;20.80;99.90;;;;;;6238834;22;20044;-75
2023/06/19 04:41:55;;;;;;;5.82;5.32;;;21.10;99.90;;;;;;6238617;23;20016;-74
2023/06/19 04:44:21;;;;;;;6.90;5.43;;;21.20;99.90;;;;;;6237655;23;20047;-74
2023/06/19 04:46:47;;;;;;;6.53;5.50;;;21.40;99.90;;;;;;6238560;23;20008;-74
2023/06/19 04:49:13;;;;;;;7.53;5.68;;;21.60;99.90;;;;;;6213309;23;20009;-74
2023/06/19 04:51:39;;;;;;;5.47;4.97;;;21.70;99.90;;;;;;6238810;23;20070;-74
2023/06/19 04:54:05;;;;;;;5.65;5.13;;;22.00;99.90;;;;;;6238811;23;20374;-75
2023/06/19 04:56:30;;;;;;;5.45;4.78;;;22.10;99.90;;;;;;6238064;23;20071;-75
2023/06/19 04:58:59;;;;;;;5.63;5.13;;;22.30;99.90;;;;;;6238080;22;20457;-75
2023/06/19 05:01:30;;;;;;;5.82;5.25;;;22.10;99.90;;;;;;6237864;23;20063;-75
2023/06/19 05:03:56;;;;;;;5.40;4.90;;;21.90;99.90;;;;;;6236279;23;20027;-75
2023/06/19 05:06:23;;;;;;;5.80;5.30;;;21.70;99.90;;;;;;6211466;23;20023;-75
2023/06/19 05:08:49;;;;;;;6.78;5.32;;;21.80;99.90;;;;;;6237069;22;20127;-75
2023/06/19 05:11:14;;;;;;;5.75;5.25;;;22.00;99.90;;;;;;6237295;23;20044;-74
2023/06/19 05:13:40;;;;;;;6.43;5.85;;;22.10;99.90;;;;;;6237653;23;20016;-75
2023/06/19 05:16:05;;;;;;;5.80;5.30;;;22.00;99.90;;;;;;6236925;23;20013;-76
2023/06/19 05:18:31;;;;;;;6.35;5.38;;;21.70;99.90;;;;;;6211833;23;20027;-76
2023/06/19 05:20:57;;;;;;;5.93;5.40;;;21.50;99.90;;;;;;6237077;23;20012;-75
2023/06/19 05:23:22;;;;;;;5.88;5.38;;;21.40;99.90;;;;;;6236441;23;20304;-75
2023/06/19 05:25:48;;;;;;;6.30;5.78;;;21.30;99.90;;;;;;6212809;23;20019;-76
2023/06/19 05:28:13;;;;;;;6.55;5.97;;;21.20;99.90;;;;;;6237714;23;20341;-75
2023/06/19 05:30:39;;;;;;;5.97;5.53;;;21.10;99.90;;;;;;6212298;23;20497;-75
2023/06/19 05:33:04;;;;;;;6.20;5.70;;;21.10;99.90;;;;;;6211749;23;20079;-74
2023/06/19 05:35:31;;;;;;;6.55;5.95;;;21.10;99.90;;;;;;6185481;23;20030;-75
2023/06/19 05:37:57;;;;;;;6.20;5.70;;;21.10;99.90;;;;;;6236837;23;20512;-74
2023/06/19 05:40:22;;;;;;;6.57;5.85;;;21.10;99.90;;;;;;6211925;23;20043;-74
2023/06/19 05:42:48;;;;;;;6.97;6.30;;;21.10;99.90;;;;;;6236970;23;20055;-75
2023/06/19 05:45:13;;;;;;;6.50;6.00;;;21.20;99.90;;;;;;6211566;23;20013;-75
2023/06/19 05:47:39;;;;;;;7.32;6.63;;;21.30;99.90;;;;;;6212673;23;20011;-75
2023/06/19 05:50:05;;;;;;;6.57;5.97;;;21.20;99.90;;;;;;6237485;22;20040;-75
2023/06/19 05:52:31;;;;;;;9.20;7.40;;;21.30;99.90;;;;;;6237658;23;20012;-75
2023/06/19 05:54:58;;;;;;;7.43;6.82;;;21.20;99.90;;;;;;6212300;23;20017;-75
2023/06/19 05:57:23;;;;;;;11.93;10.93;;;21.20;99.90;;;;;;6237908;23;20019;-75
2023/06/19 05:59:49;;;;;;;12.60;11.40;;;21.20;99.90;;;;;;6237799;22;20013;-75
2023/06/19 06:02:15;;;;;;;12.85;11.82;;;21.30;99.90;;;;;;6236116;23;20035;-75
2023/06/19 06:04:42;;;;;;;13.32;12.13;;;21.30;99.90;;;;;;6236942;23;20016;-75
2023/06/19 06:07:08;;;;;;;13.55;12.30;;;21.30;99.90;;;;;;6237979;23;20071;-74
2023/06/19 06:09:34;;;;;;;15.77;14.48;;;21.40;99.90;;;;;;6236495;22;20023;-76
2023/06/19 06:12:00;;;;;;;15.55;14.05;;;21.40;99.90;;;;;;6211125;23;20395;-76
2023/06/19 06:14:26;;;;;;;15.20;13.80;;;21.40;99.90;;;;;;6236596;23;20016;-76
2023/06/19 06:16:52;;;;;;;15.85;14.55;;;21.40;99.90;;;;;;6237075;23;20016;-75
2023/06/19 06:19:20;;;;;;;15.63;14.32;;;21.40;99.90;;;;;;6236475;22;20023;-75
2023/06/19 06:21:46;;;;;;;15.50;14.00;;;21.30;99.90;;;;;;6237729;23;20013;-75
2023/06/19 06:24:11;;;;;;;15.38;14.05;;;21.30;99.90;;;;;;6187528;23;20381;-75
2023/06/19 06:26:37;;;;;;;14.18;13.02;;;21.30;99.90;;;;;;6236786;23;20012;-75
2023/06/19 06:29:03;;;;;;;14.30;13.00;;;21.30;99.90;;;;;;6237724;22;20067;-75
2023/06/19 06:31:28;;;;;;;14.15;12.95;;;21.30;99.90;;;;;;6212666;23;20008;-75
2023/06/19 06:33:54;;;;;;;14.82;13.52;;;21.20;99.90;;;;;;6236992;23;20452;-75
2023/06/19 06:36:19;;;;;;;13.35;12.25;;;21.20;99.90;;;;;;6237153;23;20083;-75
2023/06/19 06:38:45;;;;;;;13.18;12.00;;;21.30;99.90;;;;;;6237670;22;20023;-75
2023/06/19 06:41:10;;;;;;;13.50;12.40;;;21.30;99.90;;;;;;6212105;23;20013;-75
2023/06/19 06:43:38;;;;;;;13.20;12.20;;;21.30;99.90;;;;;;6187243;23;20017;-75
2023/06/19 06:46:04;;;;;;;13.35;12.25;;;21.30;99.90;;;;;;6237486;23;20079;-75
2023/06/19 06:48:30;;;;;;;14.05;12.85;;;21.20;99.90;;;;;;6237105;23;20036;-74
2023/06/19 06:51:00;;;;;;;12.98;11.88;;;21.20;99.90;;;;;;6237715;23;20019;-75
2023/06/19 06:53:28;;;;;;;13.52;12.32;;;21.10;99.90;;;;;;6237725;23;20016;-75
2023/06/19 06:55:54;;;;;;;12.90;11.80;;;21.00;99.90;;;;;;6237109;23;20082;-75
2023/06/19 06:58:19;;;;;;;13.68;12.63;;;20.90;99.90;;;;;;6236962;23;20019;-74
2023/06/19 07:00:45;;;;;;;14.23;12.90;;;20.90;99.90;;;;;;6237685;23;20337;-75
2023/06/19 07:03:11;;;;;;;14.27;13.07;;;20.80;99.90;;;;;;6237648;23;20103;-75
2023/06/19 07:05:36;;;;;;;13.40;12.30;;;20.80;99.90;;;;;;6237918;23;20460;-75
2023/06/19 07:08:03;;;;;;;14.15;12.95;;;20.70;99.90;;;;;;6186726;23;20519;-75
2023/06/19 07:10:29;;;;;;;14.48;13.27;;;20.70;99.90;;;;;;6236407;22;20446;-75
2023/06/19 07:12:55;;;;;;;12.60;11.63;;;20.80;99.90;;;;;;6237443;23;20461;-75
2023/06/19 07:15:21;;;;;;;11.77;10.73;;;20.80;99.90;;;;;;6187169;23;20013;-75
2023/06/19 07:17:46;;;;;;;10.50;9.70;;;20.80;99.90;;;;;;6237381;23;20020;-75
2023/06/19 07:20:14;;;;;;;8.75;7.95;;;20.90;99.90;;;;;;6237179;22;20044;-75
2023/06/19 07:22:40;;;;;;;8.40;7.68;;;20.90;99.90;;;;;;6186880;23;20044;-74
2023/06/19 07:25:07;;;;;;;8.80;8.00;;;20.90;99.90;;;;;;6237698;23;20136;-75
2023/06/19 07:27:33;;;;;;;9.30;8.50;;;20.90;99.90;;;;;;6237340;23;20009;-75
2023/06/19 07:29:58;;;;;;;9.18;8.38;;;21.00;99.90;;;;;;6237438;22;20476;-75
2023/06/19 07:32:24;;;;;;;9.57;8.77;;;21.10;99.90;;;;;;6237494;23;20013;-74
2023/06/19 07:34:49;;;;;;;10.68;9.43;;;21.20;99.90;;;;;;6211713;23;20491;-75
2023/06/19 07:37:17;;;;;;;11.43;10.20;;;21.20;99.90;;;;;;6237224;23;20088;-75
2023/06/19 07:39:47;;;;;;;12.30;11.30;;;21.20;99.90;;;;;;6237332;22;20009;-75
2023/06/19 07:42:14;;;;;;;12.25;11.23;;;21.10;99.90;;;;;;6237472;23;20051;-75
2023/06/19 07:44:40;;;;;;;13.18;12.07;;;21.20;99.90;;;;;;6237450;23;20026;-75
2023/06/19 07:47:07;;;;;;;13.48;12.38;;;21.20;99.90;;;;;;6236402;23;20012;-75
2023/06/19 07:53:34;;;;;;;16.50;15.27;;;21.30;99.90;;;;;;6149683;23;20063;-77
2023/06/19 07:56:44;;;;;;;16.08;14.88;;;21.50;99.90;;;;;;6157142;23;20351;-76
2023/06/19 08:00:13;;;;;;;15.30;14.07;;;21.80;99.90;;;;;;6143600;22;20012;-77
2023/06/19 08:03:36;;;;;;;16.17;15.07;;;22.10;99.90;;;;;;6131606;23;20018;-76
2023/06/19 08:06:10;;;;;;;16.90;15.63;;;22.30;99.90;;;;;;6125616;23;20019;-77
2023/06/19 08:08:58;;;;;;;16.77;15.68;;;22.50;99.90;;;;;;6218211;23;20019;-76
2023/06/19 08:11:55;;;;;;;16.17;15.07;;;22.60;99.90;;;;;;6213048;23;20128;-76
2023/06/19 08:15:14;;;;;;;;;;;;;;;;;;;;;
2023/06/19 08:17:59;;;;;;;16.00;14.77;;;22.80;99.90;;;;;;6179666;23;20534;-76
2023/06/19 08:20:58;;;;;;;14.95;13.85;;;22.80;99.90;;;;;;6209903;22;20028;-76
2023/06/19 08:24:35;;;;;;;12.85;11.75;;;22.70;99.90;;;;;;6203165;23;20381;-76
2023/06/19 08:27:35;;;;;;;12.45;11.30;;;22.70;99.90;;;;;;6172936;23;20012;-76
2023/06/19 08:30:43;;;;;;;11.30;10.50;;;22.60;99.90;;;;;;6210376;23;20009;-76
2023/06/19 08:36:40;;;;;;;11.07;10.07;;;22.80;99.90;;;;;;6214804;22;20021;-75
2023/06/19 08:39:07;;;;;;;10.57;9.77;;;23.10;99.90;;;;;;6188478;23;20348;-75
2023/06/19 08:41:33;;;;;;;10.23;9.40;;;23.50;99.90;;;;;;6188891;23;20380;-75
2023/06/19 08:43:59;;;;;;;9.90;9.07;;;23.70;99.90;;;;;;6188508;23;20009;-75
2023/06/19 08:46:24;;;;;;;9.15;8.35;;;23.90;99.90;;;;;;6187758;23;20400;-75
2023/06/19 08:48:50;;;;;;;8.95;8.15;;;24.20;99.90;;;;;;6213603;23;20047;-75
2023/06/19 08:51:16;;;;;;;8.52;7.72;;;24.70;99.90;;;;;;6213578;23;20352;-75
2023/06/19 08:53:47;;;;;;;8.07;7.28;;;25.20;99.90;;;;;;6213974;23;20139;-75
2023/06/19 08:56:13;;;;;;;10.00;7.90;;;25.60;99.90;;;;;;6213118;23;20517;-75
2023/06/19 08:58:39;;;;;;;7.93;7.22;;;25.60;99.90;;;;;;6213469;23;20020;-75
2023/06/19 09:01:04;;;;;;;7.82;7.13;;;25.50;99.90;;;;;;6212965;23;20023;-75
2023/06/19 09:03:30;;;;;;;8.07;7.30;;;25.30;99.90;;;;;;6213286;23;20048;-75
2023/06/19 09:05:56;;;;;;;7.93;7.22;;;25.20;99.90;;;;;;6163345;23;20015;-75
2023/06/19 09:08:22;;;;;;;8.05;7.30;;;25.20;99.90;;;;;;6213346;23;20394;-75
2023/06/19 09:10:59;;;;;;;8.73;7.78;;;25.10;99.90;;;;;;6213423;23;20137;-75
2023/06/19 09:13:25;;;;;;;10.65;8.02;;;25.10;99.90;;;;;;6213313;23;20510;-75
2023/06/19 09:15:59;;;;;;;9.05;7.82;;;25.00;99.90;;;;;;6187838;23;20096;-75
2023/06/19 09:18:25;;;;;;;9.43;8.52;;;25.00;99.90;;;;;;6213275;23;20009;-75
2023/06/19 09:20:53;;;;;;;11.02;10.13;;;24.90;99.90;;;;;;6213295;23;20043;-75
2023/06/19 09:23:19;;;;;;;12.20;10.90;;;24.90;99.90;;;;;;6212807;23;20038;-75
2023/06/19 09:25:54;;;;;;;11.25;10.27;;;24.80;99.90;;;;;;6187216;23;20044;-75
2023/06/19 09:28:22;;;;;;;12.15;11.05;;;24.90;99.90;;;;;;6187992;23;20043;-75
2023/06/19 09:30:59;;;;;;;12.88;11.68;;;24.90;99.90;;;;;;6163446;23;20167;-75
2023/06/19 09:33:29;;;;;;;11.05;10.15;;;24.90;99.90;;;;;;6212237;23;20345;-76
2023/06/19 09:35:56;;;;;;;11.85;10.75;;;24.90;99.90;;;;;;6212640;23;20123;-76
2023/06/19 09:38:25;;;;;;;12.60;11.50;;;25.10;99.90;;;;;;6213129;23;20360;-75
2023/06/19 09:40:52;;;;;;;13.65;12.45;;;25.10;99.90;;;;;;6212552;23;20047;-75
2023/06/19 09:43:32;;;;;;;15.43;14.00;;;24.90;99.90;;;;;;6212998;23;20087;-75
2023/06/19 09:45:58;;;;;;;14.52;13.20;;;24.60;99.90;;;;;;6162875;23;20095;-75
2023/06/19 09:48:30;;;;;;;15.07;13.88;;;24.40;99.90;;;;;;6212794;23;20019;-75
2023/06/19 09:51:02;;;;;;;13.60;12.50;;;24.30;99.90;;;;;;6212956;23;20104;-75
2023/06/19 09:53:28;;;;;;;15.03;13.73;;;24.30;99.90;;;;;;6212515;23;20012;-75
2023/06/19 09:55:55;;;;;;;12.85;11.65;;;24.40;99.90;;;;;;6187419;23;20244;-75
2023/06/19 09:58:21;;;;;;;10.45;9.57;;;25.00;99.90;;;;;;6188158;23;20340;-75
2023/06/19 10:00:50;;;;;;;10.27;9.32;;;25.30;99.90;;;;;;6163075;23;20008;-75
2023/06/19 10:03:16;;;;;;;11.48;10.48;;;25.20;98.70;;;;;;6212338;23;20032;-75
2023/06/19 10:05:42;;;;;;;12.57;11.35;;;25.10;99.90;;;;;;6212628;23;20070;-75
2023/06/19 10:08:08;;;;;;;10.73;9.82;;;25.00;99.90;;;;;;6212705;23;20018;-75
2023/06/19 10:10:35;;;;;;;9.88;8.98;;;25.20;99.90;;;;;;6212301;23;20422;-75
2023/06/19 10:13:13;;;;;;;9.13;8.35;;;25.50;97.70;;;;;;6212674;23;20004;-75
2023/06/19 10:15:44;;;;;;;9.85;9.05;;;25.70;95.30;;;;;;6162799;23;20027;-75
2023/06/19 10:18:16;;;;;;;10.05;9.10;;;25.90;96.90;;;;;;6213041;23;20024;-75
2023/06/19 10:20:42;;;;;;;10.43;9.52;;;25.90;92.90;;;;;;6187098;23;20344;-75
2023/06/19 10:23:12;;;;;;;10.65;9.40;;;25.70;94.20;;;;;;6187414;23;20009;-75
2023/06/19 10:25:43;;;;;;;10.15;9.25;;;25.40;92.80;;;;;;6162623;23;20008;-75
2023/06/19 10:28:23;;;;;;;11.18;10.07;;;25.20;94.40;;;;;;6162782;23;20067;-75
2023/06/19 10:30:56;;;;;;;10.23;9.32;;;25.10;92.90;;;;;;6212330;23;20012;-75
2023/06/19 10:33:26;;;;;;;10.20;9.27;;;25.00;98.40;;;;;;6212154;23;20009;-75
2023/06/19 10:35:52;;;;;;;11.15;10.10;;;25.00;99.40;;;;;;6211726;23;20013;-75
2023/06/19 10:38:18;;;;;;;12.35;11.35;;;25.20;99.00;;;;;;6212107;23;20016;-74
2023/06/19 10:40:45;;;;;;;12.48;11.38;;;25.40;98.40;;;;;;6212540;23;20035;-75
2023/06/19 10:43:22;;;;;;;11.73;10.73;;;25.60;97.70;;;;;;6212129;23;20079;-75
2023/06/19 10:45:48;;;;;;;10.98;9.95;;;26.00;98.60;;;;;;6162240;23;20067;-75
2023/06/19 10:48:19;;;;;;;11.27;10.30;;;26.40;94.10;;;;;;6212455;23;20012;-75
2023/06/19 10:50:45;;;;;;;10.48;9.57;;;26.80;91.80;;;;;;6187395;23;20016;-75
2023/06/19 10:53:10;;;;;;;10.70;9.80;;;27.10;90.80;;;;;;6212462;23;20011;-75
2023/06/19 10:55:36;;;;;;;11.07;10.07;;;27.30;82.20;;;;;;6212331;23;20448;-75
2023/06/19 10:58:02;;;;;;;12.60;11.48;;;27.20;79.70;;;;;;6211800;23;20036;-75
2023/06/19 11:00:33;;;;;;;12.45;11.25;;;27.00;77.40;;;;;;6212370;23;20012;-75
2023/06/19 11:02:59;;;;;;;11.15;10.25;;;26.90;74.90;;;;;;6212892;23;20504;-75
2023/06/19 11:05:27;;;;;;;11.65;10.55;;;26.80;77.80;;;;;;6212173;23;20051;-76
2023/06/19 11:07:58;;;;;;;10.52;9.43;;;26.90;81.00;;;;;;6211264;23;20016;-75
2023/06/19 11:10:25;;;;;;;10.88;9.88;;;27.40;85.70;;;;;;6212338;23;20059;-75
2023/06/19 11:12:58;;;;;;;10.40;9.45;;;27.80;77.30;;;;;;6212391;23;20005;-76
2023/06/19 11:15:33;;;;;;;10.57;9.65;;;28.50;73.50;;;;;;6212373;23;20013;-76
2023/06/19 11:18:00;;;;;;;13.07;11.98;;;28.90;71.10;;;;;;6212126;23;20031;-75
2023/06/19 11:20:26;;;;;;;11.60;10.50;;;29.20;69.10;;;;;;6212362;23;20095;-75
2023/06/19 11:22:59;;;;;;;12.45;11.45;;;29.20;68.20;;;;;;6211509;23;20040;-75
2023/06/19 11:25:38;;;;;;;13.70;12.38;;;29.30;68.90;;;;;;6212078;23;20020;-75
2023/06/19 11:28:04;;;;;;;14.88;13.68;;;29.30;66.40;;;;;;6212072;23;20039;-75
2023/06/19 11:30:32;;;;;;;11.90;10.90;;;29.00;65.90;;;;;;6212280;23;20031;-75
2023/06/19 11:32:58;;;;;;;12.90;11.80;;;28.80;67.20;;;;;;6212280;23;20015;-75
2023/06/19 11:35:23;;;;;;;12.35;11.20;;;28.70;66.40;;;;;;6211336;23;20014;-75
2023/06/19 11:37:49;;;;;;;14.30;13.10;;;28.80;68.00;;;;;;6211754;23;20020;-75
2023/06/19 11:40:15;;;;;;;13.57;12.50;;;28.80;67.80;;;;;;6212635;23;20096;-75
2023/06/19 11:42:49;;;;;;;13.50;12.40;;;29.00;68.70;;;;;;6214232;23;20349;-75
2023/06/19 11:45:15;;;;;;;13.30;12.20;;;29.30;68.40;;;;;;6214074;23;20091;-75
2023/06/19 11:47:42;;;;;;;13.13;12.02;;;29.40;67.30;;;;;;6213495;23;20019;-76
2023/06/19 11:50:08;;;;;;;14.32;13.07;;;29.60;67.40;;;;;;6164256;23;20008;-76
2023/06/19 11:52:34;;;;;;;14.20;13.05;;;29.80;67.30;;;;;;6214095;23;20013;-76
2023/06/19 11:55:00;;;;;;;13.38;12.18;;;30.10;65.40;;;;;;6214075;23;20009;-75
2023/06/19 11:57:27;;;;;;;14.35;13.00;;;30.50;65.50;;;;;;6213914;23;20059;-76
2023/06/19 11:59:52;;;;;;;13.68;12.57;;;31.10;64.90;;;;;;6214110;23;20479;-75
2023/06/19 12:02:18;;;;;;;13.75;12.70;;;31.60;63.10;;;;;;6163922;23;20020;-75
2023/06/19 12:04:43;;;;;;;12.85;11.63;;;32.10;62.50;;;;;;6213628;23;20102;-76
2023/06/19 12:07:09;;;;;;;13.05;11.95;;;32.20;60.70;;;;;;6163995;23;20385;-75
2023/06/19 12:09:35;;;;;;;12.98;11.88;;;32.00;59.70;;;;;;6213969;23;20063;-75
2023/06/19 12:12:00;;;;;;;11.90;10.80;;;32.00;59.70;;;;;;6213422;23;20009;-76
2023/06/19 12:14:26;;;;;;;13.63;12.40;;;32.00;58.50;;;;;;6188724;23;20067;-76
2023/06/19 12:16:52;;;;;;;14.48;12.95;;;31.60;58.10;;;;;;6213648;23;20016;-76
2023/06/19 12:19:18;;;;;;;13.13;11.43;;;31.00;59.50;;;;;;6164109;23;20048;-75
2023/06/19 12:21:43;;;;;;;12.60;11.45;;;30.70;60.70;;;;;;6163455;23;20013;-75
2023/06/19 12:24:09;;;;;;;13.32;12.18;;;30.60;61.20;;;;;;6213789;23;20182;-75
2023/06/19 12:26:38;;;;;;;12.55;11.32;;;30.50;61.20;;;;;;6163036;23;20004;-76
2023/06/19 12:29:04;;;;;;;13.25;12.05;;;30.60;61.90;;;;;;6213259;23;20015;-75
2023/06/19 12:31:32;;;;;;;14.85;13.55;;;31.20;61.50;;;;;;6212831;23;20088;-76
2023/06/19 12:33:57;;;;;;;13.55;12.35;;;31.70;60.00;;;;;;6213729;23;20100;-76
2023/06/19 12:36:23;;;;;;;12.70;11.60;;;32.30;59.40;;;;;;6213337;23;20044;-76
2023/06/19 12:38:49;;;;;;;12.90;11.80;;;32.50;58.20;;;;;;6213775;23;20013;-76
2023/06/19 12:41:15;;;;;;;12.90;11.80;;;32.70;57.50;;;;;;6213172;23;20034;-76
2023/06/19 12:43:41;;;;;;;13.32;12.13;;;33.10;56.80;;;;;;6213366;23;20094;-75
2023/06/19 12:46:06;;;;;;;14.05;12.85;;;33.40;56.40;;;;;;6213304;23;20445;-75
2023/06/19 12:48:33;;;;;;;13.60;12.25;;;33.60;54.50;;;;;;6213628;23;20036;-76
2023/06/19 12:50:58;;;;;;;13.40;12.23;;;33.20;54.70;;;;;;6163649;23;20020;-76
2023/06/19 12:53:28;;;;;;;12.57;11.45;;;33.00;54.90;;;;;;6213203;23;20013;-76
2023/06/19 12:55:54;;;;;;;12.63;11.43;;;32.50;55.20;;;;;;6213190;23;20005;-76
2023/06/19 12:58:19;;;;;;;12.95;11.82;;;32.40;56.80;;;;;;6213666;23;20008;-76
2023/06/19 13:00:45;;;;;;;13.10;11.95;;;32.40;56.30;;;;;;6212993;23;20008;-76
2023/06/19 13:03:10;;;;;;;13.02;11.77;;;32.30;56.50;;;;;;6163153;23;20044;-75
2023/06/19 13:05:36;;;;;;;13.07;11.88;;;32.10;55.70;;;;;;6213032;23;20016;-75
2023/06/19 13:08:02;;;;;;;11.85;10.75;;;31.70;56.80;;;;;;6213260;23;20043;-75
2023/06/19 13:10:27;;;;;;;11.73;10.68;;;32.00;57.80;;;;;;6213409;23;20012;-76
2023/06/19 13:12:53;;;;;;;12.00;10.90;;;32.50;58.00;;;;;;6213353;23;20345;-75
2023/06/19 13:15:18;;;;;;;10.55;9.65;;;33.00;56.80;;;;;;6213258;23;20035;-76
2023/06/19 13:17:44;;;;;;;12.23;11.23;;;33.40;55.10;;;;;;6212302;23;20016;-76
2023/06/19 13:20:10;;;;;;;9.52;8.63;;;33.60;54.90;;;;;;6213281;23;20016;-76
2023/06/19 13:22:35;;;;;;;13.23;11.93;;;33.80;55.30;;;;;;6213283;23;20019;-75
2023/06/19 13:25:01;;;;;;;11.32;10.35;;;34.10;54.90;;;;;;6213373;23;20034;-75
2023/06/19 13:27:27;;;;;;;12.45;9.95;;;34.40;53.80;;;;;;6212595;23;20012;-76
2023/06/19 13:29:54;;;;;;;10.95;9.93;;;34.50;53.20;;;;;;6213082;23;20040;-76
2023/06/19 13:32:20;;;;;;;11.38;10.18;;;34.60;52.60;;;;;;6213205;23;20009;-76
2023/06/19 13:34:45;;;;;;;10.73;9.65;;;34.60;52.40;;;;;;6212952;23;20021;-76
2023/06/19 13:37:11;;;;;;;11.50;9.75;;;34.60;51.70;;;;;;6212936;23;20020;-76
2023/06/19 13:39:37;;;;;;;8.55;7.63;;;34.50;51.60;;;;;;6213199;23;20012;-76
2023/06/19 13:42:03;;;;;;;8.23;7.47;;;34.40;52.40;;;;;;6212390;23;20027;-76
2023/06/19 13:44:29;;;;;;;8.25;7.45;;;34.30;52.40;;;;;;6212837;23;20044;-76
2023/06/19 13:46:54;;;;;;;7.15;6.50;;;34.40;51.40;;;;;;6212734;23;20035;-76
2023/06/19 13:49:20;;;;;;;7.60;6.90;;;34.50;51.40;;;;;;6212957;23;20008;-75
2023/06/19 13:51:46;;;;;;;7.20;6.50;;;34.70;50.90;;;;;;6212647;23;20013;-76
2023/06/19 13:54:13;;;;;;;6.32;5.82;;;34.70;50.10;;;;;;6162643;23;20453;-76
2023/06/19 13:56:39;;;;;;;5.95;5.35;;;34.80;50.30;;;;;;6212550;23;20059;-75
2023/06/19 13:59:05;;;;;;;7.55;6.85;;;34.70;49.40;;;;;;6212907;23;20012;-76
2023/06/19 14:01:31;;;;;;;9.32;6.20;;;34.70;50.10;;;;;;6212888;23;20009;-76
2023/06/19 14:03:58;;;;;;;7.28;6.57;;;34.60;49.30;;;;;;6161950;23;20388;-76
2023/06/19 14:06:24;;;;;;;6.43;5.82;;;34.60;49.40;;;;;;6187233;23;20009;-75
2023/06/19 14:08:50;;;;;;;7.15;5.53;;;34.50;49.00;;;;;;6212814;23;20016;-76
2023/06/19 14:11:15;;;;;;;5.57;5.07;;;34.40;50.00;;;;;;6187773;23;20057;-76
2023/06/19 14:13:41;;;;;;;6.47;5.45;;;34.50;49.80;;;;;;6212316;23;20015;-75
2023/06/19 14:16:07;;;;;;;5.55;4.70;;;34.60;49.60;;;;;;6212290;23;20016;-76
2023/06/19 14:18:33;;;;;;;6.25;5.00;;;34.70;48.80;;;;;;6212858;23;20016;-76
2023/06/19 14:20:59;;;;;;;5.25;4.30;;;34.70;47.90;;;;;;6212737;23;20012;-76
2023/06/19 14:23:24;;;;;;;5.05;4.60;;;34.50;47.50;;;;;;6212619;23;20400;-76